createdAt,value
2023-01-27T00:01:43.171Z,-0.44
2023-01-27T00:05:26.532Z,-0.47
2023-01-27T00:09:12.364Z,-0.45
2023-01-27T00:13:12.634Z,-0.40
2023-01-27T00:16:56.666Z,-0.38
2023-01-27T00:20:57.087Z,-0.31
2023-01-27T00:24:39.798Z,-0.30
2023-01-27T00:28:25.344Z,-0.33
2023-01-27T00:32:26.809Z,-0.36
2023-01-27T00:36:10.035Z,-0.35
2023-01-27T00:39:55.690Z,-0.34
2023-01-27T00:43:38.370Z,-0.35
2023-01-27T00:47:22.436Z,-0.37
2023-01-27T00:51:05.301Z,-0.35
2023-01-27T00:54:48.260Z,-0.32
2023-01-27T00:58:31.110Z,-0.35
2023-01-27T01:02:13.782Z,-0.31
2023-01-27T01:05:57.869Z,-0.33
2023-01-27T01:09:40.680Z,-0.36
2023-01-27T01:13:23.504Z,-0.42
2023-01-27T01:17:06.151Z,-0.45
2023-01-27T01:20:48.900Z,-0.39
2023-01-27T01:24:32.888Z,-0.37
2023-01-27T01:28:15.576Z,-0.48
2023-01-27T01:31:58.866Z,-0.48
2023-01-27T01:35:41.550Z,-0.47
2023-01-27T01:39:24.301Z,-0.43
2023-01-27T01:43:13.439Z,-0.42
2023-01-27T01:46:56.260Z,-0.47
2023-01-27T01:50:40.384Z,-0.47
2023-01-27T01:54:25.297Z,-0.44
2023-01-27T01:58:11.504Z,-0.53
2023-01-27T02:01:55.404Z,-0.60
2023-01-27T02:05:41.975Z,-0.77
2023-01-27T02:09:25.098Z,-0.84
2023-01-27T02:13:09.235Z,-0.90
2023-01-27T02:16:52.073Z,-0.97
2023-01-27T02:20:39.434Z,-1.03
2023-01-27T02:24:23.830Z,-1.02
2023-01-27T02:28:09.800Z,-1.01
2023-01-27T02:31:52.511Z,-1.02
2023-01-27T02:35:39.456Z,-0.97
2023-01-27T02:39:24.995Z,-0.92
2023-01-27T02:43:09.018Z,-0.90
2023-01-27T02:46:51.727Z,-0.98
2023-01-27T02:50:34.430Z,-1.01
2023-01-27T02:54:17.089Z,-1.03
2023-01-27T02:57:59.891Z,-1.08
2023-01-27T03:01:44.284Z,-1.10
2023-01-27T03:05:27.561Z,-1.09
2023-01-27T03:09:10.305Z,-1.17
2023-01-27T03:12:52.990Z,-1.15
2023-01-27T03:16:53.369Z,-1.15
2023-01-27T03:20:37.486Z,-1.18
2023-01-27T03:24:20.361Z,-1.18
2023-01-27T03:28:03.366Z,-1.19
2023-01-27T03:31:46.274Z,-1.11
2023-01-27T03:35:34.497Z,-1.13
2023-01-27T03:39:36.241Z,-1.12
2023-01-27T03:43:36.674Z,-1.13
2023-01-27T03:47:19.396Z,-1.12
2023-01-27T03:51:03.006Z,-0.99
2023-01-27T03:54:47.229Z,-1.09
2023-01-27T03:58:32.828Z,-1.15
2023-01-27T04:02:33.068Z,-1.13
2023-01-27T04:06:34.501Z,-1.22
2023-01-27T04:10:18.947Z,-1.22
2023-01-27T04:14:03.022Z,-1.13
2023-01-27T04:17:45.652Z,-1.07
2023-01-27T04:21:28.472Z,-0.97
2023-01-27T04:25:13.321Z,-0.98
2023-01-27T04:28:57.441Z,-0.98
2023-01-27T04:32:40.111Z,-0.94
2023-01-27T04:36:23.069Z,-0.90
2023-01-27T04:40:06.736Z,-0.88
2023-01-27T04:43:49.401Z,-0.89
2023-01-27T04:47:33.425Z,-0.91
2023-01-27T04:51:16.226Z,-0.90
2023-01-27T04:54:58.868Z,-0.88
2023-01-27T04:58:41.617Z,-0.86
2023-01-27T05:02:25.195Z,-0.82
2023-01-27T05:06:10.214Z,-0.85
2023-01-27T05:09:52.934Z,-0.83
2023-01-27T05:13:35.775Z,-0.84
2023-01-27T05:17:18.531Z,-0.83
2023-01-27T05:21:01.960Z,-0.82
2023-01-27T05:24:46.008Z,-0.79
2023-01-27T05:28:29.246Z,-0.77
2023-01-27T05:32:11.984Z,-0.73
2023-01-27T05:35:56.054Z,-0.66
2023-01-27T05:39:39.744Z,-0.64
2023-01-27T05:43:23.878Z,-0.56
2023-01-27T05:47:07.604Z,-0.53
2023-01-27T05:50:57.040Z,-0.51
2023-01-27T05:54:39.833Z,-0.47
2023-01-27T05:58:24.205Z,-0.44
2023-01-27T06:02:07.271Z,-0.40
2023-01-27T06:05:54.336Z,-0.42
2023-01-27T06:09:38.827Z,-0.42
2023-01-27T06:13:27.688Z,-0.42
2023-01-27T06:17:10.359Z,-0.39
2023-01-27T06:20:53.183Z,-0.36
2023-01-27T06:24:38.754Z,-0.34
2023-01-27T06:28:29.164Z,-0.35
2023-01-27T06:32:12.315Z,-0.37
2023-01-27T06:36:02.552Z,-0.35
2023-01-27T06:39:45.278Z,-0.37
2023-01-27T06:43:29.379Z,-0.36
2023-01-27T06:47:12.055Z,-0.32
2023-01-27T06:50:55.368Z,-0.29
2023-01-27T06:54:38.178Z,-0.25
2023-01-27T06:58:20.929Z,-0.25
2023-01-27T07:02:05.057Z,-0.27
2023-01-27T07:05:47.845Z,-0.25
2023-01-27T07:09:35.398Z,-0.26
2023-01-27T07:13:25.691Z,-0.26
2023-01-27T07:17:10.198Z,-0.31
2023-01-27T07:20:52.996Z,-0.30
2023-01-27T07:24:37.438Z,-0.28
2023-01-27T07:28:20.139Z,-0.29
2023-01-27T07:32:02.861Z,-0.22
2023-01-27T07:35:49.854Z,-0.13
2023-01-27T07:39:33.548Z,-0.06
2023-01-27T07:43:16.361Z,-0.04
2023-01-27T07:46:59.957Z,-0.13
2023-01-27T07:50:42.724Z,-0.23
2023-01-27T07:54:28.829Z,-0.79
2023-01-27T07:58:11.511Z,-0.91
2023-01-27T08:01:54.415Z,-0.99
2023-01-27T08:05:38.571Z,-1.08
2023-01-27T08:09:21.340Z,-1.01
2023-01-27T08:13:06.724Z,-0.95
2023-01-27T08:16:49.672Z,-0.87
2023-01-27T08:20:32.424Z,-0.82
2023-01-27T08:24:15.224Z,-0.87
2023-01-27T08:27:58.046Z,-0.95
2023-01-27T08:31:42.445Z,-0.89
2023-01-27T08:35:25.185Z,-0.95
2023-01-27T08:39:07.888Z,-0.90
2023-01-27T08:42:51.334Z,-0.84
2023-01-27T08:46:34.141Z,-0.87
2023-01-27T08:50:18.360Z,-0.99
2023-01-27T08:54:01.095Z,-1.01
2023-01-27T08:57:43.887Z,-1.15
2023-01-27T09:01:27.030Z,-1.02
2023-01-27T09:05:09.810Z,-1.05
2023-01-27T09:09:10.717Z,-1.01
2023-01-27T09:12:54.078Z,-0.92
2023-01-27T09:16:36.816Z,-0.95
2023-01-27T09:20:19.772Z,-0.90
2023-01-27T09:24:04.003Z,-0.82
2023-01-27T09:27:46.693Z,-0.71
2023-01-27T09:31:29.491Z,-0.60
2023-01-27T09:35:12.843Z,-0.60
2023-01-27T09:38:58.945Z,-0.59
2023-01-27T09:43:04.519Z,-0.49
2023-01-27T09:47:23.694Z,-0.49
2023-01-27T09:51:10.658Z,-0.58
2023-01-27T09:54:59.748Z,-0.53
2023-01-27T09:58:57.050Z,-0.46
2023-01-27T10:02:59.361Z,-0.56
2023-01-27T10:06:50.079Z,-0.61
2023-01-27T10:10:40.947Z,-0.57
2023-01-27T10:14:33.528Z,-0.68
2023-01-27T10:18:25.612Z,-0.60
2023-01-27T10:22:16.241Z,-0.61
2023-01-27T10:26:08.506Z,-0.54
2023-01-27T10:29:58.215Z,-0.60
2023-01-27T10:33:48.941Z,-0.67
2023-01-27T10:37:37.641Z,-0.73
2023-01-27T10:41:26.674Z,-0.73
2023-01-27T10:45:23.670Z,-0.68
2023-01-27T10:49:09.002Z,-0.59
2023-01-27T10:52:57.501Z,-0.63
2023-01-27T10:56:42.896Z,-0.66
2023-01-27T11:01:18.899Z,-0.68
2023-01-27T11:04:39.123Z,-0.61
2023-01-27T11:08:23.418Z,-0.51
2023-01-27T11:12:10.194Z,-0.43
2023-01-27T11:15:54.799Z,-0.37
2023-01-27T11:19:44.201Z,-0.34
2023-01-27T11:23:29.316Z,-0.29
2023-01-27T11:27:18.932Z,-0.19
2023-01-27T11:31:08.952Z,-0.13
2023-01-27T11:35:01.328Z,-0.11
2023-01-27T11:38:44.089Z,0.11
2023-01-27T11:42:30.953Z,0.11
2023-01-27T11:46:19.057Z,0.18
2023-01-27T11:50:02.121Z,0.27
2023-01-27T11:53:45.488Z,0.26
2023-01-27T11:57:29.410Z,0.30
2023-01-27T12:01:17.955Z,0.33
2023-01-27T12:05:04.995Z,0.37
2023-01-27T12:08:50.087Z,0.43
2023-01-27T12:12:33.104Z,0.54
2023-01-27T12:16:17.489Z,0.71
2023-01-27T12:20:02.690Z,0.85
2023-01-27T12:23:50.757Z,0.77
2023-01-27T12:27:40.288Z,0.75
2023-01-27T12:31:30.949Z,0.83
2023-01-27T12:35:21.273Z,0.95
2023-01-27T12:39:04.138Z,1.05
2023-01-27T12:42:50.968Z,1.07
2023-01-27T12:46:35.708Z,0.99
2023-01-27T12:50:22.651Z,0.85
2023-01-27T12:54:17.026Z,0.58
2023-01-27T12:57:59.984Z,0.50
2023-01-27T13:01:47.095Z,0.52
2023-01-27T13:05:29.888Z,0.55
2023-01-27T13:09:25.377Z,0.72
2023-01-27T13:13:23.131Z,0.86
2023-01-27T13:17:28.304Z,1.07
2023-01-27T13:21:14.779Z,1.19
2023-01-27T13:25:00.659Z,1.31
2023-01-27T13:28:52.840Z,1.29
2023-01-27T13:32:37.960Z,1.29
2023-01-27T13:36:28.067Z,1.21
2023-01-27T13:40:17.984Z,1.17
2023-01-27T13:44:07.074Z,1.15
2023-01-27T13:47:54.578Z,1.11
2023-01-27T13:51:39.524Z,1.08
2023-01-27T13:55:27.981Z,1.02
2023-01-27T13:59:25.682Z,0.94
2023-01-27T14:03:40.947Z,0.90
2023-01-27T14:07:29.193Z,0.84
2023-01-27T14:11:19.080Z,0.83
2023-01-27T14:15:09.435Z,0.84
2023-01-27T14:18:58.422Z,0.90
2023-01-27T14:22:48.112Z,0.92
2023-01-27T14:26:48.282Z,0.94
2023-01-27T14:30:32.866Z,0.94
2023-01-27T14:34:31.467Z,0.96
2023-01-27T14:38:18.969Z,0.90
2023-01-27T14:42:08.026Z,0.84
2023-01-27T14:45:54.892Z,0.78
2023-01-27T14:49:55.396Z,0.75
2023-01-27T14:53:48.464Z,0.76
2023-01-27T14:57:38.550Z,0.74
2023-01-27T15:01:28.575Z,0.72
2023-01-27T15:05:17.563Z,0.72
2023-01-27T15:09:05.875Z,0.75
2023-01-27T15:12:59.295Z,0.75
2023-01-27T15:16:51.821Z,0.72
2023-01-27T15:20:48.503Z,0.71
2023-01-27T15:24:53.278Z,0.71
2023-01-27T15:28:41.954Z,0.73
2023-01-27T15:32:29.879Z,0.56
2023-01-27T15:36:31.946Z,0.50
2023-01-27T15:40:17.015Z,0.63
2023-01-27T15:44:16.592Z,0.67
2023-01-27T15:48:01.568Z,0.62
2023-01-27T15:51:45.665Z,0.59
2023-01-27T15:55:30.122Z,0.61
2023-01-27T15:59:15.896Z,0.59
2023-01-27T16:03:02.391Z,0.61
2023-01-27T16:06:52.159Z,0.59
2023-01-27T16:10:35.942Z,0.57
2023-01-27T16:14:48.543Z,0.56
2023-01-27T16:18:42.784Z,0.51
2023-01-27T16:22:28.716Z,0.50
2023-01-27T16:26:25.021Z,0.50
2023-01-27T16:30:14.344Z,0.41
2023-01-27T16:33:59.116Z,0.41
2023-01-27T16:38:00.110Z,0.54
2023-01-27T16:41:52.485Z,0.58
2023-01-27T16:45:43.779Z,0.50
2023-01-27T16:49:28.909Z,0.42
2023-01-27T16:53:18.912Z,0.32
2023-01-27T16:57:04.900Z,0.19
2023-01-27T17:00:50.834Z,0.04
2023-01-27T17:04:33.687Z,0.03
2023-01-27T17:08:22.883Z,-0.02
2023-01-27T17:12:06.524Z,0.02
2023-01-27T17:15:49.252Z,0.06
2023-01-27T17:19:34.040Z,0.11
2023-01-27T17:23:29.136Z,0.10
2023-01-27T17:27:22.687Z,0.12
2023-01-27T17:31:07.999Z,0.05
2023-01-27T17:34:51.867Z,-0.05
2023-01-27T17:38:44.401Z,-0.08
2023-01-27T17:42:29.778Z,-0.10
2023-01-27T17:46:16.636Z,0.02
2023-01-27T17:49:59.404Z,0.06
2023-01-27T17:53:43.830Z,0.07
2023-01-27T17:57:32.419Z,0.03
2023-01-27T18:01:16.000Z,-0.09
2023-01-27T18:05:00.976Z,-0.08
2023-01-27T18:08:52.466Z,-0.04
2023-01-27T18:12:36.737Z,-0.21
2023-01-27T18:16:20.642Z,-0.19
2023-01-27T18:20:04.925Z,-0.13
2023-01-27T18:23:51.291Z,-0.20
2023-01-27T18:27:35.944Z,-0.24
2023-01-27T18:31:22.024Z,-0.30
2023-01-27T18:35:22.715Z,-0.26
2023-01-27T18:39:28.877Z,-0.28
2023-01-27T18:43:11.857Z,-0.29
2023-01-27T18:46:55.208Z,-0.27
2023-01-27T18:50:41.833Z,-0.24
2023-01-27T18:54:26.386Z,-0.25
2023-01-27T18:58:12.625Z,-0.23
2023-01-27T19:01:55.362Z,-0.20
2023-01-27T19:05:38.102Z,-0.22
2023-01-27T19:09:20.789Z,-0.16
2023-01-27T19:13:05.730Z,-0.11
2023-01-27T19:16:48.502Z,-0.06
2023-01-27T19:20:31.882Z,-0.01
2023-01-27T19:24:15.264Z,-0.06
2023-01-27T19:28:02.474Z,-0.12
2023-01-27T19:31:46.616Z,-0.11
2023-01-27T19:35:31.733Z,-0.10
2023-01-27T19:39:16.961Z,-0.10
2023-01-27T19:42:59.843Z,-0.06
2023-01-27T19:46:43.608Z,-0.16
2023-01-27T19:50:29.452Z,-0.20
2023-01-27T19:54:12.151Z,-0.21
2023-01-27T19:57:54.913Z,-0.21
2023-01-27T20:01:37.562Z,-0.21
2023-01-27T20:05:20.826Z,-0.18
2023-01-27T20:09:05.582Z,-0.17
2023-01-27T20:12:54.529Z,-0.22
2023-01-27T20:16:37.257Z,-0.22
2023-01-27T20:20:20.534Z,-0.30
2023-01-27T20:24:05.144Z,-0.35
2023-01-27T20:27:49.428Z,-0.30
2023-01-27T20:31:32.132Z,-0.35
2023-01-27T20:35:16.250Z,-0.35
2023-01-27T20:38:59.016Z,-0.23
2023-01-27T20:42:43.127Z,-0.18
2023-01-27T20:46:25.860Z,-0.10
2023-01-27T20:50:09.922Z,-0.01
2023-01-27T20:53:52.579Z,0.02
2023-01-27T20:57:35.707Z,0.02
2023-01-27T21:01:21.234Z,0.03
2023-01-27T21:05:03.995Z,-0.03
2023-01-27T21:08:47.616Z,-0.10
2023-01-27T21:12:30.387Z,-0.12
2023-01-27T21:16:13.279Z,-0.26
2023-01-27T21:19:57.331Z,-0.24
2023-01-27T21:23:40.185Z,-0.46
2023-01-27T21:27:22.881Z,-0.59
2023-01-27T21:31:06.919Z,-0.63
2023-01-27T21:34:49.707Z,-0.63
2023-01-27T21:38:33.868Z,-0.69
2023-01-27T21:42:33.799Z,-0.75
2023-01-27T21:46:16.445Z,-0.75
2023-01-27T21:50:02.439Z,-0.79
2023-01-27T21:53:46.627Z,-0.74
2023-01-27T21:57:29.556Z,-0.67
2023-01-27T22:01:12.416Z,-0.59
2023-01-27T22:04:55.264Z,-0.49
2023-01-27T22:08:38.084Z,-0.56
2023-01-27T22:12:23.328Z,-0.57
2023-01-27T22:16:06.971Z,-0.53
2023-01-27T22:19:49.725Z,-0.54
2023-01-27T22:23:32.524Z,-0.48
2023-01-27T22:27:15.214Z,-0.45
2023-01-27T22:31:02.623Z,-0.39
2023-01-27T22:34:45.359Z,-0.39
2023-01-27T22:38:28.167Z,-0.48
2023-01-27T22:42:11.082Z,-0.51
2023-01-27T22:45:53.903Z,-0.55
2023-01-27T22:49:38.035Z,-0.59
2023-01-27T22:53:20.704Z,-0.56
2023-01-27T22:57:03.357Z,-0.45
2023-01-27T23:00:46.055Z,-0.52
2023-01-27T23:04:28.674Z,-0.53
2023-01-27T23:08:12.777Z,-0.50
2023-01-27T23:11:56.451Z,-0.47
2023-01-27T23:15:39.127Z,-0.43
2023-01-27T23:19:22.187Z,-0.43
2023-01-27T23:23:04.960Z,-0.42
2023-01-27T23:26:49.137Z,-0.29
2023-01-27T23:30:31.841Z,-0.25
2023-01-27T23:34:14.651Z,-0.23
2023-01-27T23:37:57.284Z,-0.33
2023-01-27T23:41:39.979Z,-0.37
2023-01-27T23:45:23.972Z,-0.39
2023-01-27T23:49:07.783Z,-0.35
2023-01-27T23:52:50.518Z,-0.31
2023-01-27T23:56:33.215Z,-0.28
